sensor_id;sensor_type;location;lat;lon;timestamp;pressure;altitude;pressure_sealevel;temperature;humidity
8366;BME280;4220;42.502;24.188;2023-07-24T00:00:52;95498.72;;;21.15;78.62
8366;BME280;4220;42.502;24.188;2023-07-24T00:03:19;95491.44;;;21.15;78.30
8366;BME280;4220;42.502;24.188;2023-07-24T00:05:46;95494.16;;;21.15;78.33
8366;BME280;4220;42.502;24.188;2023-07-24T00:08:13;95492.22;;;21.16;77.39
8366;BME280;4220;42.502;24.188;2023-07-24T00:10:39;95487.44;;;21.08;77.04
8366;BME280;4220;42.502;24.188;2023-07-24T00:13:07;95497.13;;;21.09;77.51
8366;BME280;4220;42.502;24.188;2023-07-24T00:15:34;95495.78;;;21.06;77.22
8366;BME280;4220;42.502;24.188;2023-07-24T00:18:01;95503.31;;;21.04;76.85
8366;BME280;4220;42.502;24.188;2023-07-24T00:20:28;95499.03;;;21.03;77.28
8366;BME280;4220;42.502;24.188;2023-07-24T00:22:55;95500.63;;;21.04;77.07
8366;BME280;4220;42.502;24.188;2023-07-24T00:25:22;95466.19;;;20.86;76.31
8366;BME280;4220;42.502;24.188;2023-07-24T00:27:48;95500.63;;;21.14;75.34
8366;BME280;4220;42.502;24.188;2023-07-24T00:30:17;95503.88;;;21.01;75.11
8366;BME280;4220;42.502;24.188;2023-07-24T00:32:44;95513.13;;;20.75;76.33
8366;BME280;4220;42.502;24.188;2023-07-24T00:35:10;95504.03;;;20.56;76.29
8366;BME280;4220;42.502;24.188;2023-07-24T00:37:37;95507.22;;;20.73;74.50
8366;BME280;4220;42.502;24.188;2023-07-24T00:40:05;95497.97;;;20.89;73.26
8366;BME280;4220;42.502;24.188;2023-07-24T00:42:32;95508.47;;;21.06;71.96
8366;BME280;4220;42.502;24.188;2023-07-24T00:44:59;95504.66;;;21.12;70.50
8366;BME280;4220;42.502;24.188;2023-07-24T00:47:27;95488.50;;;21.12;70.70
8366;BME280;4220;42.502;24.188;2023-07-24T00:49:55;95483.41;;;20.95;72.56
8366;BME280;4220;42.502;24.188;2023-07-24T00:52:23;95498.47;;;21.01;73.03
8366;BME280;4220;42.502;24.188;2023-07-24T00:54:50;95500.66;;;20.99;72.86
8366;BME280;4220;42.502;24.188;2023-07-24T00:57:17;95501.75;;;20.93;72.33
8366;BME280;4220;42.502;24.188;2023-07-24T00:59:44;95488.44;;;20.38;73.26
8366;BME280;4220;42.502;24.188;2023-07-24T01:02:11;95489.56;;;20.27;75.18
8366;BME280;4220;42.502;24.188;2023-07-24T01:04:40;95487.91;;;20.41;76.85
8366;BME280;4220;42.502;24.188;2023-07-24T01:07:07;95452.63;;;20.22;76.81
8366;BME280;4220;42.502;24.188;2023-07-24T01:09:33;95491.13;;;20.38;75.70
8366;BME280;4220;42.502;24.188;2023-07-24T01:12:04;95492.47;;;20.40;74.04
8366;BME280;4220;42.502;24.188;2023-07-24T01:14:38;95430.31;;;19.71;74.52
8366;BME280;4220;42.502;24.188;2023-07-24T01:17:10;95501.91;;;20.12;73.87
8366;BME280;4220;42.502;24.188;2023-07-24T01:19:47;95504.06;;;20.20;72.78
8366;BME280;4220;42.502;24.188;2023-07-24T01:22:21;95507.84;;;20.25;71.75
8366;BME280;4220;42.502;24.188;2023-07-24T01:25:05;95505.16;;;20.14;71.85
8366;BME280;4220;42.502;24.188;2023-07-24T01:27:40;95509.44;;;20.05;71.88
8366;BME280;4220;42.502;24.188;2023-07-24T01:30:08;95526.13;;;20.07;71.96
8366;BME280;4220;42.502;24.188;2023-07-24T01:32:35;95517.28;;;19.92;72.70
8366;BME280;4220;42.502;24.188;2023-07-24T01:35:03;95529.09;;;19.86;73.46
8366;BME280;4220;42.502;24.188;2023-07-24T01:37:31;95474.72;;;19.38;73.83
8366;BME280;4220;42.502;24.188;2023-07-24T01:39:59;95527.75;;;19.78;73.35
8366;BME280;4220;42.502;24.188;2023-07-24T01:42:27;95528.31;;;19.75;73.58
8366;BME280;4220;42.502;24.188;2023-07-24T01:44:56;95525.63;;;19.80;72.73
8366;BME280;4220;42.502;24.188;2023-07-24T01:47:23;95528.00;;;19.56;74.36
8366;BME280;4220;42.502;24.188;2023-07-24T01:49:50;95538.34;;;19.18;75.65
8366;BME280;4220;42.502;24.188;2023-07-24T01:52:17;95535.13;;;19.16;76.18
8366;BME280;4220;42.502;24.188;2023-07-24T01:54:44;95548.06;;;19.34;75.60
8366;BME280;4220;42.502;24.188;2023-07-24T01:57:11;95538.06;;;19.04;76.22
8366;BME280;4220;42.502;24.188;2023-07-24T01:59:38;95505.97;;;18.87;76.98
8366;BME280;4220;42.502;24.188;2023-07-24T02:02:06;95546.47;;;19.33;74.95
8366;BME280;4220;42.502;24.188;2023-07-24T02:04:33;95545.16;;;19.35;73.85
8366;BME280;4220;42.502;24.188;2023-07-24T02:06:59;95540.00;;;19.29;74.57
8366;BME280;4220;42.502;24.188;2023-07-24T02:09:26;95547.28;;;19.33;74.29
8366;BME280;4220;42.502;24.188;2023-07-24T02:11:53;95546.19;;;19.29;73.25
8366;BME280;4220;42.502;24.188;2023-07-24T02:14:20;95499.63;;;19.14;73.35
8366;BME280;4220;42.502;24.188;2023-07-24T02:16:47;95536.88;;;19.57;72.79
8366;BME280;4220;42.502;24.188;2023-07-24T02:19:15;95542.28;;;19.72;72.80
8366;BME280;4220;42.502;24.188;2023-07-24T02:21:42;95541.22;;;19.93;71.67
8366;BME280;4220;42.502;24.188;2023-07-24T02:24:09;95545.25;;;19.96;70.92
8366;BME280;4220;42.502;24.188;2023-07-24T02:26:36;95523.72;;;19.81;71.08
8366;BME280;4220;42.502;24.188;2023-07-24T02:29:02;95434.28;;;19.08;71.98
8366;BME280;4220;42.502;24.188;2023-07-24T02:31:29;95541.44;;;19.56;72.62
8366;BME280;4220;42.502;24.188;2023-07-24T02:33:56;95508.41;;;18.84;72.61
8366;BME280;4220;42.502;24.188;2023-07-24T02:36:24;95508.97;;;18.91;73.00
8366;BME280;4220;42.502;24.188;2023-07-24T02:38:51;95496.59;;;18.95;72.73
8366;BME280;4220;42.502;24.188;2023-07-24T02:41:18;95543.22;;;19.21;72.53
8366;BME280;4220;42.502;24.188;2023-07-24T02:43:45;95539.38;;;19.02;72.88
8366;BME280;4220;42.502;24.188;2023-07-24T02:46:12;95534.44;;;18.78;72.81
8366;BME280;4220;42.502;24.188;2023-07-24T02:48:39;95538.72;;;18.74;73.52
8366;BME280;4220;42.502;24.188;2023-07-24T02:51:06;95543.56;;;18.77;73.48
8366;BME280;4220;42.502;24.188;2023-07-24T02:53:34;95539.81;;;18.78;73.77
8366;BME280;4220;42.502;24.188;2023-07-24T02:56:01;95513.06;;;18.52;72.61
8366;BME280;4220;42.502;24.188;2023-07-24T02:58:28;95529.06;;;18.37;74.43
8366;BME280;4220;42.502;24.188;2023-07-24T03:01:02;95530.94;;;18.36;75.08
8366;BME280;4220;42.502;24.188;2023-07-24T03:03:29;95524.38;;;18.59;74.80
8366;BME280;4220;42.502;24.188;2023-07-24T03:05:56;95508.09;;;18.80;73.51
8366;BME280;4220;42.502;24.188;2023-07-24T03:08:23;95531.88;;;19.04;72.98
8366;BME280;4220;42.502;24.188;2023-07-24T03:10:51;95532.69;;;19.04;73.12
8366;BME280;4220;42.502;24.188;2023-07-24T03:13:18;95528.66;;;19.17;72.61
8366;BME280;4220;42.502;24.188;2023-07-24T03:15:51;95530.50;;;19.01;73.32
8366;BME280;4220;42.502;24.188;2023-07-24T03:18:18;95519.41;;;18.82;74.01
8366;BME280;4220;42.502;24.188;2023-07-24T03:20:45;95516.94;;;18.71;73.86
8366;BME280;4220;42.502;24.188;2023-07-24T03:23:12;95529.19;;;18.52;75.13
8366;BME280;4220;42.502;24.188;2023-07-24T03:25:39;95524.69;;;18.67;73.93
8366;BME280;4220;42.502;24.188;2023-07-24T03:28:07;95532.81;;;18.77;72.58
8366;BME280;4220;42.502;24.188;2023-07-24T03:30:34;95531.75;;;18.78;72.24
8366;BME280;4220;42.502;24.188;2023-07-24T03:33:02;95533.84;;;18.66;73.36
8366;BME280;4220;42.502;24.188;2023-07-24T03:35:28;95421.97;;;17.98;72.89
8366;BME280;4220;42.502;24.188;2023-07-24T03:37:55;95532.31;;;18.85;72.28
8366;BME280;4220;42.502;24.188;2023-07-24T03:40:22;95523.25;;;19.02;71.72
8366;BME280;4220;42.502;24.188;2023-07-24T03:42:49;95526.25;;;19.20;71.34
8366;BME280;4220;42.502;24.188;2023-07-24T03:45:17;95515.00;;;19.23;71.03
8366;BME280;4220;42.502;24.188;2023-07-24T03:47:44;95513.97;;;19.39;71.01
8366;BME280;4220;42.502;24.188;2023-07-24T03:50:11;95531.75;;;19.50;70.92
8366;BME280;4220;42.502;24.188;2023-07-24T03:52:38;95529.06;;;19.50;71.41
8366;BME280;4220;42.502;24.188;2023-07-24T03:55:05;95530.16;;;19.60;71.51
8366;BME280;4220;42.502;24.188;2023-07-24T03:57:33;95521.00;;;19.71;71.36
8366;BME280;4220;42.502;24.188;2023-07-24T04:00:02;95522.66;;;19.82;73.42
8366;BME280;4220;42.502;24.188;2023-07-24T04:02:45;95517.25;;;19.62;72.30
8366;BME280;4220;42.502;24.188;2023-07-24T04:05:13;95535.56;;;19.75;71.79
8366;BME280;4220;42.502;24.188;2023-07-24T04:07:40;95531.53;;;19.67;71.51
8366;BME280;4220;42.502;24.188;2023-07-24T04:10:07;95502.97;;;19.56;70.90
8366;BME280;4220;42.502;24.188;2023-07-24T04:12:34;95536.13;;;19.87;69.43
8366;BME280;4220;42.502;24.188;2023-07-24T04:15:01;95533.69;;;19.70;69.46
8366;BME280;4220;42.502;24.188;2023-07-24T04:17:28;95544.44;;;19.70;70.52
8366;BME280;4220;42.502;24.188;2023-07-24T04:19:56;95540.41;;;19.63;70.79
8366;BME280;4220;42.502;24.188;2023-07-24T04:22:23;95543.91;;;19.63;71.26
8366;BME280;4220;42.502;24.188;2023-07-24T04:24:50;95549.28;;;19.83;70.96
8366;BME280;4220;42.502;24.188;2023-07-24T04:27:17;95542.31;;;19.97;69.85
8366;BME280;4220;42.502;24.188;2023-07-24T04:29:44;95515.94;;;19.99;69.23
8366;BME280;4220;42.502;24.188;2023-07-24T04:32:10;95547.97;;;20.21;69.06
8366;BME280;4220;42.502;24.188;2023-07-24T04:34:37;95540.16;;;20.19;69.71
8366;BME280;4220;42.502;24.188;2023-07-24T04:37:06;95542.31;;;20.43;69.13
8366;BME280;4220;42.502;24.188;2023-07-24T04:39:33;95536.38;;;20.61;68.30
8366;BME280;4220;42.502;24.188;2023-07-24T04:42:00;95530.94;;;20.81;67.76
8366;BME280;4220;42.502;24.188;2023-07-24T04:44:26;95531.38;;;21.08;66.52
8366;BME280;4220;42.502;24.188;2023-07-24T04:46:53;95536.69;;;21.28;65.53
8366;BME280;4220;42.502;24.188;2023-07-24T04:49:21;95521.31;;;21.29;65.06
8366;BME280;4220;42.502;24.188;2023-07-24T04:51:48;95534.66;;;21.54;65.55
8366;BME280;4220;42.502;24.188;2023-07-24T04:54:17;95523.31;;;21.57;63.99
8366;BME280;4220;42.502;24.188;2023-07-24T04:56:43;95537.56;;;21.63;63.96
8366;BME280;4220;42.502;24.188;2023-07-24T04:59:10;95537.50;;;21.73;65.01
8366;BME280;4220;42.502;24.188;2023-07-24T05:01:37;95535.84;;;21.82;67.44
8366;BME280;4220;42.502;24.188;2023-07-24T05:04:04;95526.13;;;21.86;68.20
8366;BME280;4220;42.502;24.188;2023-07-24T05:06:31;95517.44;;;21.94;68.63
8366;BME280;4220;42.502;24.188;2023-07-24T05:08:57;95527.06;;;22.05;67.93
8366;BME280;4220;42.502;24.188;2023-07-24T05:11:26;95524.03;;;22.11;67.53
8366;BME280;4220;42.502;24.188;2023-07-24T05:13:52;95526.19;;;22.09;67.79
8366;BME280;4220;42.502;24.188;2023-07-24T05:16:19;95527.50;;;22.17;67.68
8366;BME280;4220;42.502;24.188;2023-07-24T05:18:46;95520.38;;;22.26;66.64
8366;BME280;4220;42.502;24.188;2023-07-24T05:21:13;95504.41;;;22.30;65.70
8366;BME280;4220;42.502;24.188;2023-07-24T05:23:40;95490.03;;;22.34;65.18
8366;BME280;4220;42.502;24.188;2023-07-24T05:26:06;95517.91;;;22.58;64.74
8366;BME280;4220;42.502;24.188;2023-07-24T05:28:35;95529.72;;;22.72;64.28
8366;BME280;4220;42.502;24.188;2023-07-24T05:31:02;95498.41;;;22.66;63.95
8366;BME280;4220;42.502;24.188;2023-07-24T05:33:29;95519.13;;;23.00;63.79
8366;BME280;4220;42.502;24.188;2023-07-24T05:35:59;95524.88;;;23.17;63.24
8366;BME280;4220;42.502;24.188;2023-07-24T05:38:27;95530.03;;;23.37;62.52
8366;BME280;4220;42.502;24.188;2023-07-24T05:40:55;95525.06;;;23.44;62.24
8366;BME280;4220;42.502;24.188;2023-07-24T05:43:22;95526.56;;;23.55;62.23
8366;BME280;4220;42.502;24.188;2023-07-24T05:45:50;95525.41;;;23.61;62.19
8366;BME280;4220;42.502;24.188;2023-07-24T05:48:17;95526.78;;;23.77;61.31
8366;BME280;4220;42.502;24.188;2023-07-24T05:50:44;95528.53;;;23.87;61.17
8366;BME280;4220;42.502;24.188;2023-07-24T05:53:11;95530.66;;;23.90;60.54
8366;BME280;4220;42.502;24.188;2023-07-24T05:55:38;95447.09;;;23.46;60.03
8366;BME280;4220;42.502;24.188;2023-07-24T05:58:05;95520.56;;;23.95;60.22
8366;BME280;4220;42.502;24.188;2023-07-24T06:00:31;95427.03;;;23.47;59.85
8366;BME280;4220;42.502;24.188;2023-07-24T06:03:00;95521.44;;;24.10;59.99
8366;BME280;4220;42.502;24.188;2023-07-24T06:05:27;95514.66;;;24.26;59.43
8366;BME280;4220;42.502;24.188;2023-07-24T06:07:53;95500.50;;;24.29;58.09
8366;BME280;4220;42.502;24.188;2023-07-24T06:10:20;95508.31;;;24.49;57.72
8366;BME280;4220;42.502;24.188;2023-07-24T06:12:47;95501.66;;;24.55;57.37
8366;BME280;4220;42.502;24.188;2023-07-24T06:15:14;95498.38;;;24.58;57.37
8366;BME280;4220;42.502;24.188;2023-07-24T06:17:41;95509.06;;;24.82;57.01
8366;BME280;4220;42.502;24.188;2023-07-24T06:20:09;95466.94;;;24.70;56.89
8366;BME280;4220;42.502;24.188;2023-07-24T06:22:36;95503.56;;;25.00;57.80
8366;BME280;4220;42.502;24.188;2023-07-24T06:25:04;95491.47;;;25.06;58.13
8366;BME280;4220;42.502;24.188;2023-07-24T06:27:31;95470.78;;;25.10;60.96
8366;BME280;4220;42.502;24.188;2023-07-24T06:29:58;95495.69;;;25.40;61.90
8366;BME280;4220;42.502;24.188;2023-07-24T06:32:24;95489.47;;;25.53;60.97
8366;BME280;4220;42.502;24.188;2023-07-24T06:34:51;95491.25;;;25.57;60.57
8366;BME280;4220;42.502;24.188;2023-07-24T06:37:19;95500.59;;;25.65;60.65
8366;BME280;4220;42.502;24.188;2023-07-24T06:39:46;95492.22;;;25.75;60.30
8366;BME280;4220;42.502;24.188;2023-07-24T06:42:13;95478.22;;;25.68;61.08
8366;BME280;4220;42.502;24.188;2023-07-24T06:44:40;95485.09;;;25.87;60.06
8366;BME280;4220;42.502;24.188;2023-07-24T06:47:07;95467.13;;;25.78;59.96
8366;BME280;4220;42.502;24.188;2023-07-24T06:49:34;95493.53;;;26.00;59.72
8366;BME280;4220;42.502;24.188;2023-07-24T06:52:01;95487.25;;;26.13;59.35
8366;BME280;4220;42.502;24.188;2023-07-24T06:54:29;95487.19;;;26.26;59.03
8366;BME280;4220;42.502;24.188;2023-07-24T06:56:56;95484.59;;;26.21;59.29
8366;BME280;4220;42.502;24.188;2023-07-24T06:59:23;95487.06;;;26.31;59.56
8366;BME280;4220;42.502;24.188;2023-07-24T07:01:50;95489.19;;;26.43;59.16
8366;BME280;4220;42.502;24.188;2023-07-24T07:04:17;95488.00;;;26.57;58.63
8366;BME280;4220;42.502;24.188;2023-07-24T07:06:43;95488.09;;;26.75;58.30
8366;BME280;4220;42.502;24.188;2023-07-24T07:09:10;95480.91;;;26.79;58.46
8366;BME280;4220;42.502;24.188;2023-07-24T07:11:39;95483.88;;;26.69;58.08
8366;BME280;4220;42.502;24.188;2023-07-24T07:14:05;95470.16;;;26.43;56.32
8366;BME280;4220;42.502;24.188;2023-07-24T07:16:34;95480.56;;;26.41;58.22
8366;BME280;4220;42.502;24.188;2023-07-24T07:19:01;95470.09;;;26.34;58.70
8366;BME280;4220;42.502;24.188;2023-07-24T07:21:28;95485.06;;;26.45;58.92
8366;BME280;4220;42.502;24.188;2023-07-24T07:23:55;95483.78;;;26.51;59.25
8366;BME280;4220;42.502;24.188;2023-07-24T07:26:21;95477.84;;;26.41;59.12
8366;BME280;4220;42.502;24.188;2023-07-24T07:28:50;95485.94;;;26.32;59.37
8366;BME280;4220;42.502;24.188;2023-07-24T07:31:16;95472.03;;;26.34;59.32
8366;BME280;4220;42.502;24.188;2023-07-24T07:33:44;95477.56;;;26.51;60.26
8366;BME280;4220;42.502;24.188;2023-07-24T07:36:11;95476.63;;;26.55;60.69
8366;BME280;4220;42.502;24.188;2023-07-24T07:38:38;95474.25;;;26.63;60.44
8366;BME280;4220;42.502;24.188;2023-07-24T07:41:05;95466.09;;;26.63;60.66
8366;BME280;4220;42.502;24.188;2023-07-24T07:43:32;95475.06;;;26.63;60.70
8366;BME280;4220;42.502;24.188;2023-07-24T07:46:01;95469.56;;;26.54;61.12
8366;BME280;4220;42.502;24.188;2023-07-24T07:48:28;95435.56;;;26.35;60.76
8366;BME280;4220;42.502;24.188;2023-07-24T07:50:55;95451.03;;;26.56;59.89
8366;BME280;4220;42.502;24.188;2023-07-24T07:53:22;95477.59;;;26.82;59.38
8366;BME280;4220;42.502;24.188;2023-07-24T07:55:55;95473.00;;;26.99;58.90
8366;BME280;4220;42.502;24.188;2023-07-24T07:58:23;95451.84;;;26.96;57.79
8366;BME280;4220;42.502;24.188;2023-07-24T08:00:50;95470.03;;;27.27;57.41
8366;BME280;4220;42.502;24.188;2023-07-24T08:03:19;95399.97;;;26.93;57.15
8366;BME280;4220;42.502;24.188;2023-07-24T08:05:45;95418.72;;;27.03;56.73
8366;BME280;4220;42.502;24.188;2023-07-24T08:08:12;95476.06;;;27.54;56.39
8366;BME280;4220;42.502;24.188;2023-07-24T08:10:39;95459.53;;;27.59;55.77
8366;BME280;4220;42.502;24.188;2023-07-24T08:13:06;95436.47;;;27.65;55.32
8366;BME280;4220;42.502;24.188;2023-07-24T08:15:34;95478.81;;;27.88;54.47
8366;BME280;4220;42.502;24.188;2023-07-24T08:18:02;95454.09;;;27.94;54.14
8366;BME280;4220;42.502;24.188;2023-07-24T08:20:30;95479.00;;;28.01;53.69
8366;BME280;4220;42.502;24.188;2023-07-24T08:22:57;95471.72;;;27.87;52.48
8366;BME280;4220;42.502;24.188;2023-07-24T08:25:24;95465.78;;;27.77;52.56
8366;BME280;4220;42.502;24.188;2023-07-24T08:27:51;95470.78;;;27.83;51.95
8366;BME280;4220;42.502;24.188;2023-07-24T08:30:18;95473.19;;;27.85;50.71
8366;BME280;4220;42.502;24.188;2023-07-24T08:32:45;95439.97;;;27.92;50.88
8366;BME280;4220;42.502;24.188;2023-07-24T08:35:12;95460.81;;;28.22;50.67
8366;BME280;4220;42.502;24.188;2023-07-24T08:37:43;95459.69;;;28.31;50.33
8366;BME280;4220;42.502;24.188;2023-07-24T08:40:11;95457.53;;;28.54;49.34
8366;BME280;4220;42.502;24.188;2023-07-24T08:42:38;95442.75;;;28.72;47.66
8366;BME280;4220;42.502;24.188;2023-07-24T08:45:11;95459.06;;;28.89;48.86
8366;BME280;4220;42.502;24.188;2023-07-24T08:47:41;95449.06;;;28.93;49.84
8366;BME280;4220;42.502;24.188;2023-07-24T08:50:09;95455.38;;;29.23;49.52
8366;BME280;4220;42.502;24.188;2023-07-24T08:52:37;95458.81;;;29.41;48.56
8366;BME280;4220;42.502;24.188;2023-07-24T08:55:06;95444.69;;;29.59;47.46
8366;BME280;4220;42.502;24.188;2023-07-24T08:57:34;95445.03;;;29.58;46.06
8366;BME280;4220;42.502;24.188;2023-07-24T09:00:01;95413.06;;;29.29;44.33
8366;BME280;4220;42.502;24.188;2023-07-24T09:02:31;95416.47;;;29.26;43.24
8366;BME280;4220;42.502;24.188;2023-07-24T09:04:58;95430.91;;;29.27;44.42
8366;BME280;4220;42.502;24.188;2023-07-24T09:07:25;95411.81;;;29.18;43.09
8366;BME280;4220;42.502;24.188;2023-07-24T09:09:51;95429.34;;;29.46;43.10
8366;BME280;4220;42.502;24.188;2023-07-24T09:12:27;95424.22;;;29.45;42.64
8366;BME280;4220;42.502;24.188;2023-07-24T09:15:01;95425.81;;;29.66;42.10
8366;BME280;4220;42.502;24.188;2023-07-24T09:17:29;95423.69;;;29.72;42.89
8366;BME280;4220;42.502;24.188;2023-07-24T09:19:56;95429.69;;;29.86;43.00
8366;BME280;4220;42.502;24.188;2023-07-24T09:22:24;95422.31;;;29.87;39.93
8366;BME280;4220;42.502;24.188;2023-07-24T09:24:53;95393.75;;;29.75;40.63
8366;BME280;4220;42.502;24.188;2023-07-24T09:27:24;95417.97;;;30.18;40.79
8366;BME280;4220;42.502;24.188;2023-07-24T09:29:51;95421.97;;;30.54;40.07
8366;BME280;4220;42.502;24.188;2023-07-24T09:32:19;95419.28;;;30.78;39.50
8366;BME280;4220;42.502;24.188;2023-07-24T09:34:47;95420.91;;;31.03;39.40
8366;BME280;4220;42.502;24.188;2023-07-24T09:37:23;95415.44;;;31.03;39.39
8366;BME280;4220;42.502;24.188;2023-07-24T09:39:50;95414.25;;;31.28;39.11
8366;BME280;4220;42.502;24.188;2023-07-24T09:42:17;95413.44;;;31.64;38.74
8366;BME280;4220;42.502;24.188;2023-07-24T09:44:46;95414.25;;;31.92;37.51
8366;BME280;4220;42.502;24.188;2023-07-24T09:47:12;95402.13;;;31.53;37.56
8366;BME280;4220;42.502;24.188;2023-07-24T09:49:39;95399.63;;;31.36;38.74
8366;BME280;4220;42.502;24.188;2023-07-24T09:52:09;95405.13;;;31.48;38.72
8366;BME280;4220;42.502;24.188;2023-07-24T09:54:40;95392.91;;;31.86;38.00
8366;BME280;4220;42.502;24.188;2023-07-24T09:57:13;95392.75;;;32.22;38.04
8366;BME280;4220;42.502;24.188;2023-07-24T09:59:40;95372.31;;;32.35;36.73
8366;BME280;4220;42.502;24.188;2023-07-24T10:02:11;95367.91;;;32.46;37.03
8366;BME280;4220;42.502;24.188;2023-07-24T10:04:40;95379.63;;;32.74;35.89
8366;BME280;4220;42.502;24.188;2023-07-24T10:07:06;95378.91;;;32.93;35.60
8366;BME280;4220;42.502;24.188;2023-07-24T10:09:33;95379.94;;;33.20;35.80
8366;BME280;4220;42.502;24.188;2023-07-24T10:12:02;95382.38;;;33.06;35.64
8366;BME280;4220;42.502;24.188;2023-07-24T10:14:29;95370.84;;;32.69;37.11
8366;BME280;4220;42.502;24.188;2023-07-24T10:16:57;95387.47;;;32.45;35.15
8366;BME280;4220;42.502;24.188;2023-07-24T10:19:35;95373.53;;;32.22;36.23
8366;BME280;4220;42.502;24.188;2023-07-24T10:22:03;95366.38;;;32.17;36.11
8366;BME280;4220;42.502;24.188;2023-07-24T10:24:30;95338.44;;;32.00;34.64
8366;BME280;4220;42.502;24.188;2023-07-24T10:26:57;95359.03;;;32.37;35.31
8366;BME280;4220;42.502;24.188;2023-07-24T10:29:24;95346.06;;;32.65;36.49
8366;BME280;4220;42.502;24.188;2023-07-24T10:31:54;95315.13;;;32.68;36.52
8366;BME280;4220;42.502;24.188;2023-07-24T10:34:22;95334.88;;;32.89;37.39
8366;BME280;4220;42.502;24.188;2023-07-24T10:36:50;95335.88;;;33.32;36.90
8366;BME280;4220;42.502;24.188;2023-07-24T10:39:17;95330.84;;;33.72;36.11
8366;BME280;4220;42.502;24.188;2023-07-24T10:41:46;95331.88;;;33.83;35.47
8366;BME280;4220;42.502;24.188;2023-07-24T10:44:13;95329.25;;;34.09;35.18
8366;BME280;4220;42.502;24.188;2023-07-24T10:46:41;95319.97;;;33.79;35.36
8366;BME280;4220;42.502;24.188;2023-07-24T10:49:09;95325.09;;;33.42;36.89
8366;BME280;4220;42.502;24.188;2023-07-24T10:51:36;95323.41;;;33.38;37.12
8366;BME280;4220;42.502;24.188;2023-07-24T10:54:05;95316.72;;;33.54;36.92
8366;BME280;4220;42.502;24.188;2023-07-24T10:56:32;95321.72;;;33.87;36.73
8366;BME280;4220;42.502;24.188;2023-07-24T10:59:03;95308.63;;;33.81;35.74
8366;BME280;4220;42.502;24.188;2023-07-24T11:01:31;95309.63;;;33.73;36.08
8366;BME280;4220;42.502;24.188;2023-07-24T11:03:58;95309.09;;;33.86;34.40
8366;BME280;4220;42.502;24.188;2023-07-24T11:06:26;95308.50;;;33.96;32.83
8366;BME280;4220;42.502;24.188;2023-07-24T11:08:55;95299.41;;;33.92;33.02
8366;BME280;4220;42.502;24.188;2023-07-24T11:11:28;95292.16;;;33.84;34.42
8366;BME280;4220;42.502;24.188;2023-07-24T11:13:55;95289.41;;;33.84;34.91
8366;BME280;4220;42.502;24.188;2023-07-24T11:16:23;95294.69;;;33.93;34.27
8366;BME280;4220;42.502;24.188;2023-07-24T11:18:50;95305.09;;;33.61;30.64
8366;BME280;4220;42.502;24.188;2023-07-24T11:21:18;95282.88;;;33.35;30.58
8366;BME280;4220;42.502;24.188;2023-07-24T11:23:47;95295.06;;;33.53;31.04
8366;BME280;4220;42.502;24.188;2023-07-24T11:26:14;95302.28;;;33.23;31.37
8366;BME280;4220;42.502;24.188;2023-07-24T11:28:43;95285.63;;;33.16;32.43
8366;BME280;4220;42.502;24.188;2023-07-24T11:31:09;95263.69;;;33.54;31.57
8366;BME280;4220;42.502;24.188;2023-07-24T11:33:38;95278.53;;;34.33;31.17
8366;BME280;4220;42.502;24.188;2023-07-24T11:36:05;95277.63;;;34.74;31.04
8366;BME280;4220;42.502;24.188;2023-07-24T11:38:32;95265.03;;;34.51;30.99
8366;BME280;4220;42.502;24.188;2023-07-24T11:40:59;95274.19;;;34.32;31.02
8366;BME280;4220;42.502;24.188;2023-07-24T11:43:26;95265.84;;;34.06;32.04
8366;BME280;4220;42.502;24.188;2023-07-24T11:45:54;95257.50;;;34.02;32.14
8366;BME280;4220;42.502;24.188;2023-07-24T11:48:22;95245.66;;;34.21;32.22
8366;BME280;4220;42.502;24.188;2023-07-24T11:50:51;95239.16;;;33.87;32.40
8366;BME280;4220;42.502;24.188;2023-07-24T11:53:21;95241.94;;;33.68;32.75
8366;BME280;4220;42.502;24.188;2023-07-24T11:55:48;95239.06;;;34.26;32.49
8366;BME280;4220;42.502;24.188;2023-07-24T11:58:16;95248.41;;;34.66;32.93
8366;BME280;4220;42.502;24.188;2023-07-24T12:00:45;95240.56;;;34.68;33.01
8366;BME280;4220;42.502;24.188;2023-07-24T12:03:13;95248.81;;;34.95;31.55
8366;BME280;4220;42.502;24.188;2023-07-24T12:05:42;95227.78;;;34.57;30.63
8366;BME280;4220;42.502;24.188;2023-07-24T12:08:09;95242.50;;;34.45;30.97
8366;BME280;4220;42.502;24.188;2023-07-24T12:10:37;95213.47;;;34.02;31.69
8366;BME280;4220;42.502;24.188;2023-07-24T12:13:05;95235.19;;;33.85;31.95
8366;BME280;4220;42.502;24.188;2023-07-24T12:15:32;95235.28;;;33.92;32.51
8366;BME280;4220;42.502;24.188;2023-07-24T12:18:00;95244.44;;;34.18;32.13
8366;BME280;4220;42.502;24.188;2023-07-24T12:20:31;95231.69;;;34.56;31.77
8366;BME280;4220;42.502;24.188;2023-07-24T12:22:59;95237.28;;;34.59;31.85
8366;BME280;4220;42.502;24.188;2023-07-24T12:25:26;95240.50;;;34.65;32.22
8366;BME280;4220;42.502;24.188;2023-07-24T12:27:53;95243.03;;;34.77;30.91
8366;BME280;4220;42.502;24.188;2023-07-24T12:30:20;95232.31;;;34.46;30.44
8366;BME280;4220;42.502;24.188;2023-07-24T12:32:46;95248.50;;;34.25;30.78
8366;BME280;4220;42.502;24.188;2023-07-24T12:35:16;95239.13;;;34.29;30.45
8366;BME280;4220;42.502;24.188;2023-07-24T12:37:44;95238.53;;;34.43;28.69
8366;BME280;4220;42.502;24.188;2023-07-24T12:40:12;95235.25;;;34.56;28.67
8366;BME280;4220;42.502;24.188;2023-07-24T12:42:39;95235.78;;;34.43;29.81
8366;BME280;4220;42.502;24.188;2023-07-24T12:45:06;95237.75;;;34.91;30.29
8366;BME280;4220;42.502;24.188;2023-07-24T12:47:33;95131.66;;;34.26;31.13
8366;BME280;4220;42.502;24.188;2023-07-24T12:50:00;95197.75;;;35.04;30.96
8366;BME280;4220;42.502;24.188;2023-07-24T12:52:29;95217.00;;;35.01;30.24
8366;BME280;4220;42.502;24.188;2023-07-24T12:54:57;95207.94;;;35.00;28.56
8366;BME280;4220;42.502;24.188;2023-07-24T12:57:24;95206.72;;;35.27;28.71
8366;BME280;4220;42.502;24.188;2023-07-24T12:59:52;95226.13;;;35.05;28.86
8366;BME280;4220;42.502;24.188;2023-07-24T13:02:18;95219.34;;;34.72;28.32
8366;BME280;4220;42.502;24.188;2023-07-24T13:04:45;95218.78;;;34.86;27.64
8366;BME280;4220;42.502;24.188;2023-07-24T13:07:12;95217.56;;;34.57;26.56
8366;BME280;4220;42.502;24.188;2023-07-24T13:09:39;95223.94;;;34.61;27.17
8366;BME280;4220;42.502;24.188;2023-07-24T13:12:08;95204.34;;;34.70;27.16